sensor_id;sensor_type;location;lat;lon;timestamp;P1;durP1;ratioP1;P2;durP2;ratioP2
8327;SDS011;4201;48.754;8.864;2024-03-17T00:00:54;12.40;;;8.20;;
8327;SDS011;4201;48.754;8.864;2024-03-17T00:03:21;13.30;;;9.53;;
8327;SDS011;4201;48.754;8.864;2024-03-17T00:05:48;14.10;;;8.90;;
8327;SDS011;4201;48.754;8.864;2024-03-17T00:08:20;11.67;;;8.07;;
8327;SDS011;4201;48.754;8.864;2024-03-17T00:10:49;14.40;;;8.87;;
8327;SDS011;4201;48.754;8.864;2024-03-17T00:13:15;15.13;;;7.27;;
8327;SDS011;4201;48.754;8.864;2024-03-17T00:15:41;7.97;;;7.17;;
8327;SDS011;4201;48.754;8.864;2024-03-17T00:18:08;22.03;;;8.30;;
8327;SDS011;4201;48.754;8.864;2024-03-17T00:20:33;10.60;;;6.93;;
8327;SDS011;4201;48.754;8.864;2024-03-17T00:23:01;11.80;;;7.83;;
8327;SDS011;4201;48.754;8.864;2024-03-17T00:25:26;14.07;;;8.43;;
8327;SDS011;4201;48.754;8.864;2024-03-17T00:27:53;13.10;;;8.40;;
8327;SDS011;4201;48.754;8.864;2024-03-17T00:30:22;9.23;;;7.80;;
8327;SDS011;4201;48.754;8.864;2024-03-17T00:32:48;11.07;;;7.70;;
8327;SDS011;4201;48.754;8.864;2024-03-17T00:35:13;11.53;;;8.50;;
8327;SDS011;4201;48.754;8.864;2024-03-17T00:37:45;19.47;;;8.53;;
8327;SDS011;4201;48.754;8.864;2024-03-17T00:40:12;11.93;;;9.60;;
8327;SDS011;4201;48.754;8.864;2024-03-17T00:42:38;12.67;;;9.03;;
8327;SDS011;4201;48.754;8.864;2024-03-17T00:45:04;12.10;;;9.10;;
8327;SDS011;4201;48.754;8.864;2024-03-17T00:47:31;12.60;;;8.93;;
8327;SDS011;4201;48.754;8.864;2024-03-17T00:49:57;14.57;;;9.23;;
8327;SDS011;4201;48.754;8.864;2024-03-17T00:52:23;10.83;;;8.37;;
8327;SDS011;4201;48.754;8.864;2024-03-17T00:54:48;11.90;;;8.97;;
8327;SDS011;4201;48.754;8.864;2024-03-17T00:57:16;13.30;;;8.57;;
8327;SDS011;4201;48.754;8.864;2024-03-17T00:59:41;12.50;;;8.30;;
8327;SDS011;4201;48.754;8.864;2024-03-17T01:02:09;10.07;;;6.93;;
8327;SDS011;4201;48.754;8.864;2024-03-17T01:04:34;11.70;;;8.33;;
8327;SDS011;4201;48.754;8.864;2024-03-17T01:07:00;12.30;;;7.90;;
8327;SDS011;4201;48.754;8.864;2024-03-17T01:09:26;9.07;;;7.87;;
8327;SDS011;4201;48.754;8.864;2024-03-17T01:11:52;12.10;;;8.67;;
8327;SDS011;4201;48.754;8.864;2024-03-17T01:14:18;10.00;;;7.80;;
8327;SDS011;4201;48.754;8.864;2024-03-17T01:16:45;14.27;;;8.53;;
8327;SDS011;4201;48.754;8.864;2024-03-17T01:19:10;12.50;;;8.90;;
8327;SDS011;4201;48.754;8.864;2024-03-17T01:21:37;10.60;;;7.73;;
8327;SDS011;4201;48.754;8.864;2024-03-17T01:24:02;12.60;;;7.70;;
8327;SDS011;4201;48.754;8.864;2024-03-17T01:26:28;11.60;;;7.37;;
8327;SDS011;4201;48.754;8.864;2024-03-17T01:28:54;10.17;;;7.00;;
8327;SDS011;4201;48.754;8.864;2024-03-17T01:31:21;7.43;;;6.30;;
8327;SDS011;4201;48.754;8.864;2024-03-17T01:33:46;9.30;;;6.57;;
8327;SDS011;4201;48.754;8.864;2024-03-17T01:36:13;9.40;;;6.77;;
8327;SDS011;4201;48.754;8.864;2024-03-17T01:38:38;12.20;;;7.10;;
8327;SDS011;4201;48.754;8.864;2024-03-17T01:41:04;9.13;;;7.07;;
8327;SDS011;4201;48.754;8.864;2024-03-17T01:43:30;9.10;;;7.83;;
8327;SDS011;4201;48.754;8.864;2024-03-17T01:45:56;13.87;;;9.33;;
8327;SDS011;4201;48.754;8.864;2024-03-17T01:48:26;12.03;;;8.30;;
8327;SDS011;4201;48.754;8.864;2024-03-17T01:50:53;12.90;;;9.20;;
8327;SDS011;4201;48.754;8.864;2024-03-17T01:53:20;13.33;;;9.00;;
8327;SDS011;4201;48.754;8.864;2024-03-17T01:55:46;10.47;;;8.27;;
8327;SDS011;4201;48.754;8.864;2024-03-17T01:58:12;11.23;;;7.70;;
8327;SDS011;4201;48.754;8.864;2024-03-17T02:00:39;10.83;;;8.13;;
8327;SDS011;4201;48.754;8.864;2024-03-17T02:03:04;12.27;;;9.30;;
8327;SDS011;4201;48.754;8.864;2024-03-17T02:05:35;12.83;;;9.10;;
8327;SDS011;4201;48.754;8.864;2024-03-17T02:08:02;13.73;;;8.30;;
8327;SDS011;4201;48.754;8.864;2024-03-17T02:10:28;11.97;;;7.83;;
8327;SDS011;4201;48.754;8.864;2024-03-17T02:12:53;15.70;;;7.70;;
8327;SDS011;4201;48.754;8.864;2024-03-17T02:15:20;11.00;;;7.83;;
8327;SDS011;4201;48.754;8.864;2024-03-17T02:17:45;13.40;;;8.87;;
8327;SDS011;4201;48.754;8.864;2024-03-17T02:20:12;13.80;;;9.73;;
8327;SDS011;4201;48.754;8.864;2024-03-17T02:22:40;12.70;;;7.63;;
8327;SDS011;4201;48.754;8.864;2024-03-17T02:25:06;11.10;;;8.70;;
8327;SDS011;4201;48.754;8.864;2024-03-17T02:27:33;13.50;;;8.77;;
8327;SDS011;4201;48.754;8.864;2024-03-17T02:29:59;11.33;;;8.40;;
8327;SDS011;4201;48.754;8.864;2024-03-17T02:32:24;12.93;;;8.40;;
8327;SDS011;4201;48.754;8.864;2024-03-17T02:34:52;12.47;;;9.37;;
8327;SDS011;4201;48.754;8.864;2024-03-17T02:37:18;15.93;;;9.80;;
8327;SDS011;4201;48.754;8.864;2024-03-17T02:39:45;13.70;;;8.93;;
8327;SDS011;4201;48.754;8.864;2024-03-17T02:42:11;14.13;;;10.00;;
8327;SDS011;4201;48.754;8.864;2024-03-17T02:44:37;11.47;;;7.83;;
8327;SDS011;4201;48.754;8.864;2024-03-17T02:47:04;9.27;;;7.60;;
8327;SDS011;4201;48.754;8.864;2024-03-17T02:49:33;10.80;;;8.23;;
8327;SDS011;4201;48.754;8.864;2024-03-17T02:52:02;14.30;;;8.50;;
8327;SDS011;4201;48.754;8.864;2024-03-17T02:54:29;9.57;;;7.37;;
8327;SDS011;4201;48.754;8.864;2024-03-17T02:56:56;13.97;;;9.67;;
8327;SDS011;4201;48.754;8.864;2024-03-17T02:59:23;17.93;;;11.13;;
8327;SDS011;4201;48.754;8.864;2024-03-17T03:01:49;21.90;;;11.20;;
8327;SDS011;4201;48.754;8.864;2024-03-17T03:04:15;11.77;;;9.17;;
8327;SDS011;4201;48.754;8.864;2024-03-17T03:06:42;14.80;;;10.10;;
8327;SDS011;4201;48.754;8.864;2024-03-17T03:09:08;16.40;;;11.15;;
8327;SDS011;4201;48.754;8.864;2024-03-17T03:11:38;15.43;;;12.07;;
8327;SDS011;4201;48.754;8.864;2024-03-17T03:14:07;14.60;;;10.40;;
8327;SDS011;4201;48.754;8.864;2024-03-17T03:16:33;18.37;;;10.70;;
8327;SDS011;4201;48.754;8.864;2024-03-17T03:19:00;14.83;;;9.00;;
8327;SDS011;4201;48.754;8.864;2024-03-17T03:21:26;13.53;;;9.20;;
8327;SDS011;4201;48.754;8.864;2024-03-17T03:23:52;14.43;;;10.17;;
8327;SDS011;4201;48.754;8.864;2024-03-17T03:26:18;16.30;;;11.10;;
8327;SDS011;4201;48.754;8.864;2024-03-17T03:28:45;12.47;;;9.57;;
8327;SDS011;4201;48.754;8.864;2024-03-17T03:31:12;11.37;;;8.43;;
8327;SDS011;4201;48.754;8.864;2024-03-17T03:33:39;12.00;;;8.10;;
8327;SDS011;4201;48.754;8.864;2024-03-17T03:36:09;12.50;;;8.63;;
8327;SDS011;4201;48.754;8.864;2024-03-17T03:38:36;12.47;;;7.97;;
8327;SDS011;4201;48.754;8.864;2024-03-17T03:41:05;13.00;;;9.20;;
8327;SDS011;4201;48.754;8.864;2024-03-17T03:43:32;13.13;;;9.00;;
8327;SDS011;4201;48.754;8.864;2024-03-17T03:45:59;10.23;;;7.90;;
8327;SDS011;4201;48.754;8.864;2024-03-17T03:48:26;15.37;;;10.80;;
8327;SDS011;4201;48.754;8.864;2024-03-17T03:50:57;11.57;;;8.90;;
8327;SDS011;4201;48.754;8.864;2024-03-17T03:53:24;13.73;;;9.20;;
8327;SDS011;4201;48.754;8.864;2024-03-17T03:55:54;12.20;;;9.20;;
8327;SDS011;4201;48.754;8.864;2024-03-17T03:58:42;14.17;;;8.50;;
8327;SDS011;4201;48.754;8.864;2024-03-17T04:01:14;11.60;;;8.50;;
8327;SDS011;4201;48.754;8.864;2024-03-17T04:03:47;11.90;;;9.33;;
8327;SDS011;4201;48.754;8.864;2024-03-17T04:06:14;14.10;;;10.80;;
8327;SDS011;4201;48.754;8.864;2024-03-17T04:08:41;13.40;;;10.40;;
8327;SDS011;4201;48.754;8.864;2024-03-17T04:11:07;12.70;;;10.17;;
8327;SDS011;4201;48.754;8.864;2024-03-17T04:13:42;12.10;;;8.77;;
8327;SDS011;4201;48.754;8.864;2024-03-17T04:16:14;13.93;;;9.60;;
8327;SDS011;4201;48.754;8.864;2024-03-17T04:18:46;9.80;;;8.53;;
8327;SDS011;4201;48.754;8.864;2024-03-17T04:21:18;16.23;;;10.00;;
8327;SDS011;4201;48.754;8.864;2024-03-17T04:23:46;12.50;;;8.60;;
8327;SDS011;4201;48.754;8.864;2024-03-17T04:26:12;13.60;;;9.70;;
8327;SDS011;4201;48.754;8.864;2024-03-17T04:28:44;12.97;;;9.37;;
8327;SDS011;4201;48.754;8.864;2024-03-17T04:31:10;15.37;;;8.30;;
8327;SDS011;4201;48.754;8.864;2024-03-17T04:33:36;12.00;;;8.60;;
8327;SDS011;4201;48.754;8.864;2024-03-17T04:36:03;10.13;;;8.20;;
8327;SDS011;4201;48.754;8.864;2024-03-17T04:38:30;12.30;;;8.90;;
8327;SDS011;4201;48.754;8.864;2024-03-17T04:40:57;11.63;;;8.13;;
8327;SDS011;4201;48.754;8.864;2024-03-17T04:43:29;11.60;;;8.37;;
8327;SDS011;4201;48.754;8.864;2024-03-17T04:46:00;12.93;;;8.70;;
8327;SDS011;4201;48.754;8.864;2024-03-17T04:48:26;11.57;;;9.03;;
8327;SDS011;4201;48.754;8.864;2024-03-17T04:50:53;13.57;;;9.57;;
8327;SDS011;4201;48.754;8.864;2024-03-17T04:53:22;13.20;;;9.00;;
8327;SDS011;4201;48.754;8.864;2024-03-17T04:55:58;12.90;;;9.23;;
8327;SDS011;4201;48.754;8.864;2024-03-17T04:58:24;11.73;;;8.83;;
8327;SDS011;4201;48.754;8.864;2024-03-17T05:00:50;11.97;;;8.93;;
8327;SDS011;4201;48.754;8.864;2024-03-17T05:03:17;14.03;;;9.40;;
8327;SDS011;4201;48.754;8.864;2024-03-17T05:05:43;11.87;;;9.57;;
8327;SDS011;4201;48.754;8.864;2024-03-17T05:08:09;14.93;;;9.50;;
8327;SDS011;4201;48.754;8.864;2024-03-17T05:10:36;14.40;;;10.17;;
8327;SDS011;4201;48.754;8.864;2024-03-17T05:13:03;13.60;;;9.37;;
8327;SDS011;4201;48.754;8.864;2024-03-17T05:15:30;12.90;;;9.20;;
8327;SDS011;4201;48.754;8.864;2024-03-17T05:17:56;15.67;;;11.27;;
8327;SDS011;4201;48.754;8.864;2024-03-17T05:20:22;15.73;;;9.63;;
8327;SDS011;4201;48.754;8.864;2024-03-17T05:22:49;13.03;;;9.73;;
8327;SDS011;4201;48.754;8.864;2024-03-17T05:25:15;12.13;;;9.57;;
8327;SDS011;4201;48.754;8.864;2024-03-17T05:27:42;21.43;;;11.97;;
8327;SDS011;4201;48.754;8.864;2024-03-17T05:30:10;15.30;;;10.87;;
8327;SDS011;4201;48.754;8.864;2024-03-17T05:32:36;11.50;;;8.90;;
8327;SDS011;4201;48.754;8.864;2024-03-17T05:35:03;12.70;;;8.70;;
8327;SDS011;4201;48.754;8.864;2024-03-17T05:37:30;15.93;;;11.83;;
8327;SDS011;4201;48.754;8.864;2024-03-17T05:39:56;18.20;;;13.13;;
8327;SDS011;4201;48.754;8.864;2024-03-17T07:17:47;7.57;;;6.00;;
8327;SDS011;4201;48.754;8.864;2024-03-17T07:20:13;8.57;;;6.80;;
8327;SDS011;4201;48.754;8.864;2024-03-17T07:22:39;8.07;;;5.80;;
8327;SDS011;4201;48.754;8.864;2024-03-17T07:25:06;9.70;;;5.20;;
8327;SDS011;4201;48.754;8.864;2024-03-17T07:27:32;8.27;;;5.97;;
8327;SDS011;4201;48.754;8.864;2024-03-17T07:29:59;5.93;;;4.80;;
8327;SDS011;4201;48.754;8.864;2024-03-17T07:32:25;9.23;;;4.77;;
8327;SDS011;4201;48.754;8.864;2024-03-17T07:34:53;7.00;;;5.33;;
8327;SDS011;4201;48.754;8.864;2024-03-17T07:37:19;7.60;;;5.00;;
8327;SDS011;4201;48.754;8.864;2024-03-17T07:39:46;8.40;;;4.63;;
8327;SDS011;4201;48.754;8.864;2024-03-17T07:42:14;8.10;;;5.20;;
8327;SDS011;4201;48.754;8.864;2024-03-17T07:44:42;6.70;;;5.73;;
8327;SDS011;4201;48.754;8.864;2024-03-17T07:47:09;7.17;;;5.07;;
8327;SDS011;4201;48.754;8.864;2024-03-17T07:49:35;5.50;;;4.90;;
8327;SDS011;4201;48.754;8.864;2024-03-17T07:52:03;9.77;;;5.17;;
8327;SDS011;4201;48.754;8.864;2024-03-17T07:54:29;8.17;;;6.00;;
8327;SDS011;4201;48.754;8.864;2024-03-17T07:56:55;8.93;;;6.47;;
8327;SDS011;4201;48.754;8.864;2024-03-17T07:59:21;7.17;;;5.23;;
8327;SDS011;4201;48.754;8.864;2024-03-17T08:01:48;8.80;;;6.70;;
8327;SDS011;4201;48.754;8.864;2024-03-17T08:04:15;10.10;;;6.30;;
8327;SDS011;4201;48.754;8.864;2024-03-17T08:06:41;11.70;;;7.47;;
8327;SDS011;4201;48.754;8.864;2024-03-17T08:09:09;7.70;;;6.33;;
8327;SDS011;4201;48.754;8.864;2024-03-17T08:11:35;9.83;;;6.40;;
8327;SDS011;4201;48.754;8.864;2024-03-17T08:14:01;11.67;;;8.13;;
8327;SDS011;4201;48.754;8.864;2024-03-17T08:16:28;9.13;;;6.50;;
8327;SDS011;4201;48.754;8.864;2024-03-17T08:18:54;9.17;;;7.40;;
8327;SDS011;4201;48.754;8.864;2024-03-17T08:21:20;7.70;;;6.73;;
8327;SDS011;4201;48.754;8.864;2024-03-17T08:23:47;11.57;;;7.90;;
8327;SDS011;4201;48.754;8.864;2024-03-17T08:26:14;16.70;;;8.20;;
8327;SDS011;4201;48.754;8.864;2024-03-17T08:28:41;10.00;;;6.90;;
8327;SDS011;4201;48.754;8.864;2024-03-17T08:31:07;7.23;;;6.03;;
8327;SDS011;4201;48.754;8.864;2024-03-17T08:33:33;8.50;;;6.70;;
8327;SDS011;4201;48.754;8.864;2024-03-17T08:36:00;10.30;;;7.03;;
8327;SDS011;4201;48.754;8.864;2024-03-17T08:38:27;10.40;;;7.43;;
8327;SDS011;4201;48.754;8.864;2024-03-17T08:40:53;12.00;;;7.33;;
8327;SDS011;4201;48.754;8.864;2024-03-17T08:43:21;13.93;;;7.47;;
8327;SDS011;4201;48.754;8.864;2024-03-17T08:45:54;7.87;;;7.07;;
8327;SDS011;4201;48.754;8.864;2024-03-17T08:48:20;13.47;;;7.67;;
8327;SDS011;4201;48.754;8.864;2024-03-17T08:50:49;10.17;;;7.27;;
8327;SDS011;4201;48.754;8.864;2024-03-17T08:53:15;8.73;;;7.40;;
8327;SDS011;4201;48.754;8.864;2024-03-17T08:55:42;12.63;;;6.80;;
8327;SDS011;4201;48.754;8.864;2024-03-17T08:58:08;7.30;;;6.50;;
8327;SDS011;4201;48.754;8.864;2024-03-17T09:00:36;12.63;;;6.90;;
8327;SDS011;4201;48.754;8.864;2024-03-17T09:03:02;12.33;;;8.10;;
8327;SDS011;4201;48.754;8.864;2024-03-17T09:05:29;8.57;;;6.70;;
8327;SDS011;4201;48.754;8.864;2024-03-17T09:07:55;14.50;;;6.60;;
8327;SDS011;4201;48.754;8.864;2024-03-17T09:10:21;8.50;;;7.20;;
8327;SDS011;4201;48.754;8.864;2024-03-17T09:12:49;10.40;;;6.27;;
8327;SDS011;4201;48.754;8.864;2024-03-17T09:15:15;16.80;;;8.20;;
8327;SDS011;4201;48.754;8.864;2024-03-17T09:17:43;10.60;;;6.70;;
8327;SDS011;4201;48.754;8.864;2024-03-17T09:20:10;8.10;;;6.73;;
8327;SDS011;4201;48.754;8.864;2024-03-17T09:22:37;8.97;;;7.00;;
8327;SDS011;4201;48.754;8.864;2024-03-17T09:25:05;8.20;;;6.87;;
8327;SDS011;4201;48.754;8.864;2024-03-17T09:27:32;9.33;;;6.70;;
8327;SDS011;4201;48.754;8.864;2024-03-17T09:29:58;8.73;;;6.63;;
8327;SDS011;4201;48.754;8.864;2024-03-17T09:32:25;9.93;;;6.20;;
8327;SDS011;4201;48.754;8.864;2024-03-17T09:34:52;8.23;;;6.60;;
8327;SDS011;4201;48.754;8.864;2024-03-17T09:37:19;12.27;;;7.40;;
8327;SDS011;4201;48.754;8.864;2024-03-17T09:39:46;6.93;;;5.90;;
8327;SDS011;4201;48.754;8.864;2024-03-17T09:42:16;8.90;;;6.70;;
8327;SDS011;4201;48.754;8.864;2024-03-17T09:44:43;8.93;;;6.83;;
8327;SDS011;4201;48.754;8.864;2024-03-17T09:47:09;7.70;;;5.77;;
8327;SDS011;4201;48.754;8.864;2024-03-17T09:49:41;7.93;;;5.50;;
8327;SDS011;4201;48.754;8.864;2024-03-17T09:52:09;7.07;;;5.13;;
8327;SDS011;4201;48.754;8.864;2024-03-17T09:54:41;7.60;;;5.80;;
8327;SDS011;4201;48.754;8.864;2024-03-17T09:57:08;9.47;;;6.57;;
8327;SDS011;4201;48.754;8.864;2024-03-17T09:59:39;8.53;;;5.20;;
8327;SDS011;4201;48.754;8.864;2024-03-17T10:02:05;6.60;;;5.27;;
8327;SDS011;4201;48.754;8.864;2024-03-17T10:04:40;6.93;;;5.63;;
8327;SDS011;4201;48.754;8.864;2024-03-17T10:07:06;7.43;;;5.53;;
8327;SDS011;4201;48.754;8.864;2024-03-17T10:09:33;8.23;;;5.40;;
8327;SDS011;4201;48.754;8.864;2024-03-17T10:12:01;8.03;;;6.10;;
8327;SDS011;4201;48.754;8.864;2024-03-17T10:14:27;7.47;;;5.23;;
8327;SDS011;4201;48.754;8.864;2024-03-17T10:16:52;11.93;;;5.17;;
8327;SDS011;4201;48.754;8.864;2024-03-17T10:19:21;5.73;;;4.83;;
8327;SDS011;4201;48.754;8.864;2024-03-17T10:21:48;9.40;;;5.00;;
8327;SDS011;4201;48.754;8.864;2024-03-17T10:24:18;7.83;;;5.83;;
8327;SDS011;4201;48.754;8.864;2024-03-17T10:26:47;6.63;;;5.40;;
8327;SDS011;4201;48.754;8.864;2024-03-17T10:29:19;9.00;;;5.70;;
8327;SDS011;4201;48.754;8.864;2024-03-17T10:31:45;7.43;;;6.00;;
8327;SDS011;4201;48.754;8.864;2024-03-17T10:34:12;7.60;;;5.27;;
8327;SDS011;4201;48.754;8.864;2024-03-17T10:36:40;9.33;;;4.60;;
8327;SDS011;4201;48.754;8.864;2024-03-17T10:39:08;8.70;;;4.70;;
8327;SDS011;4201;48.754;8.864;2024-03-17T10:41:42;7.03;;;4.90;;
8327;SDS011;4201;48.754;8.864;2024-03-17T10:44:10;6.77;;;4.30;;
8327;SDS011;4201;48.754;8.864;2024-03-17T10:46:36;5.43;;;3.70;;
8327;SDS011;4201;48.754;8.864;2024-03-17T10:49:02;5.00;;;3.90;;
8327;SDS011;4201;48.754;8.864;2024-03-17T10:51:29;6.57;;;4.47;;
8327;SDS011;4201;48.754;8.864;2024-03-17T10:53:55;7.47;;;4.37;;
8327;SDS011;4201;48.754;8.864;2024-03-17T10:56:22;6.80;;;4.30;;
8327;SDS011;4201;48.754;8.864;2024-03-17T10:58:49;10.17;;;5.00;;
8327;SDS011;4201;48.754;8.864;2024-03-17T11:01:23;6.40;;;4.00;;
8327;SDS011;4201;48.754;8.864;2024-03-17T11:03:50;6.57;;;3.77;;
8327;SDS011;4201;48.754;8.864;2024-03-17T11:06:18;7.30;;;3.97;;
8327;SDS011;4201;48.754;8.864;2024-03-17T11:08:44;5.60;;;3.40;;
8327;SDS011;4201;48.754;8.864;2024-03-17T11:11:11;10.73;;;4.17;;
8327;SDS011;4201;48.754;8.864;2024-03-17T11:13:39;4.90;;;3.43;;
8327;SDS011;4201;48.754;8.864;2024-03-17T11:16:05;7.53;;;3.83;;
8327;SDS011;4201;48.754;8.864;2024-03-17T11:18:52;3.50;;;2.83;;
8327;SDS011;4201;48.754;8.864;2024-03-17T11:21:26;12.77;;;3.80;;
8327;SDS011;4201;48.754;8.864;2024-03-17T11:23:57;7.50;;;2.83;;
8327;SDS011;4201;48.754;8.864;2024-03-17T11:26:27;4.70;;;2.23;;
8327;SDS011;4201;48.754;8.864;2024-03-17T11:28:54;7.20;;;2.67;;
8327;SDS011;4201;48.754;8.864;2024-03-17T11:34:29;4.60;;;2.60;;
8327;SDS011;4201;48.754;8.864;2024-03-17T11:36:55;3.83;;;2.30;;
8327;SDS011;4201;48.754;8.864;2024-03-17T11:39:22;5.67;;;2.33;;
8327;SDS011;4201;48.754;8.864;2024-03-17T11:42:07;3.90;;;2.80;;
8327;SDS011;4201;48.754;8.864;2024-03-17T11:44:40;5.40;;;2.60;;
8327;SDS011;4201;48.754;8.864;2024-03-17T11:47:07;6.37;;;2.07;;
8327;SDS011;4201;48.754;8.864;2024-03-17T11:49:35;4.63;;;2.30;;
8327;SDS011;4201;48.754;8.864;2024-03-17T11:52:02;3.53;;;2.30;;
8327;SDS011;4201;48.754;8.864;2024-03-17T11:54:29;5.90;;;2.60;;
8327;SDS011;4201;48.754;8.864;2024-03-17T11:56:55;6.43;;;2.23;;
8327;SDS011;4201;48.754;8.864;2024-03-17T11:59:22;3.87;;;1.93;;
8327;SDS011;4201;48.754;8.864;2024-03-17T12:01:48;3.50;;;1.90;;
8327;SDS011;4201;48.754;8.864;2024-03-17T12:04:15;7.20;;;2.00;;
8327;SDS011;4201;48.754;8.864;2024-03-17T12:06:45;8.40;;;2.40;;
8327;SDS011;4201;48.754;8.864;2024-03-17T12:09:16;5.47;;;2.20;;
8327;SDS011;4201;48.754;8.864;2024-03-17T12:11:42;3.43;;;1.90;;
8327;SDS011;4201;48.754;8.864;2024-03-17T12:14:13;6.67;;;2.00;;
8327;SDS011;4201;48.754;8.864;2024-03-17T12:16:45;3.70;;;1.90;;
8327;SDS011;4201;48.754;8.864;2024-03-17T12:19:13;3.80;;;1.77;;
8327;SDS011;4201;48.754;8.864;2024-03-17T12:21:40;5.53;;;1.90;;
8327;SDS011;4201;48.754;8.864;2024-03-17T12:24:09;3.73;;;1.90;;
8327;SDS011;4201;48.754;8.864;2024-03-17T12:26:38;5.97;;;2.90;;
8327;SDS011;4201;48.754;8.864;2024-03-17T12:29:04;3.70;;;2.00;;
8327;SDS011;4201;48.754;8.864;2024-03-17T12:31:29;5.80;;;2.20;;
8327;SDS011;4201;48.754;8.864;2024-03-17T12:33:56;3.73;;;1.80;;
8327;SDS011;4201;48.754;8.864;2024-03-17T12:36:21;3.57;;;1.50;;
8327;SDS011;4201;48.754;8.864;2024-03-17T12:38:49;4.13;;;1.97;;
8327;SDS011;4201;48.754;8.864;2024-03-17T12:41:17;4.30;;;1.73;;
8327;SDS011;4201;48.754;8.864;2024-03-17T12:43:47;4.50;;;1.70;;
8327;SDS011;4201;48.754;8.864;2024-03-17T12:46:14;3.37;;;1.70;;
8327;SDS011;4201;48.754;8.864;2024-03-17T12:48:39;3.37;;;1.67;;
8327;SDS011;4201;48.754;8.864;2024-03-17T12:51:09;3.63;;;2.30;;
8327;SDS011;4201;48.754;8.864;2024-03-17T12:53:37;3.60;;;1.60;;
8327;SDS011;4201;48.754;8.864;2024-03-17T12:56:04;5.57;;;1.83;;
8327;SDS011;4201;48.754;8.864;2024-03-17T12:58:49;3.77;;;1.87;;
8327;SDS011;4201;48.754;8.864;2024-03-17T13:01:33;5.20;;;2.50;;
8327;SDS011;4201;48.754;8.864;2024-03-17T13:04:04;4.80;;;1.80;;
8327;SDS011;4201;48.754;8.864;2024-03-17T13:06:32;5.50;;;1.80;;
8327;SDS011;4201;48.754;8.864;2024-03-17T13:08:58;5.37;;;1.87;;
8327;SDS011;4201;48.754;8.864;2024-03-17T13:11:25;4.33;;;1.73;;
8327;SDS011;4201;48.754;8.864;2024-03-17T13:13:55;5.63;;;2.23;;
8327;SDS011;4201;48.754;8.864;2024-03-17T13:16:21;4.40;;;1.90;;
8327;SDS011;4201;48.754;8.864;2024-03-17T13:18:47;2.70;;;1.67;;
8327;SDS011;4201;48.754;8.864;2024-03-17T13:21:13;6.70;;;2.00;;
8327;SDS011;4201;48.754;8.864;2024-03-17T13:23:40;5.63;;;2.10;;
8327;SDS011;4201;48.754;8.864;2024-03-17T13:26:06;4.20;;;2.20;;
8327;SDS011;4201;48.754;8.864;2024-03-17T13:28:33;4.83;;;1.80;;
8327;SDS011;4201;48.754;8.864;2024-03-17T13:31:00;6.13;;;1.83;;
8327;SDS011;4201;48.754;8.864;2024-03-17T13:33:28;3.80;;;1.70;;
8327;SDS011;4201;48.754;8.864;2024-03-17T13:35:55;3.70;;;1.60;;
8327;SDS011;4201;48.754;8.864;2024-03-17T13:38:21;5.20;;;1.77;;
8327;SDS011;4201;48.754;8.864;2024-03-17T13:40:47;3.70;;;1.70;;
8327;SDS011;4201;48.754;8.864;2024-03-17T13:43:13;4.20;;;1.80;;
8327;SDS011;4201;48.754;8.864;2024-03-17T13:45:40;4.97;;;1.40;;
8327;SDS011;4201;48.754;8.864;2024-03-17T13:48:09;3.40;;;1.67;;
8327;SDS011;4201;48.754;8.864;2024-03-17T13:50:36;4.10;;;1.50;;
8327;SDS011;4201;48.754;8.864;2024-03-17T13:53:03;3.93;;;1.90;;
8327;SDS011;4201;48.754;8.864;2024-03-17T13:55:28;8.40;;;2.33;;
8327;SDS011;4201;48.754;8.864;2024-03-17T13:57:55;3.43;;;2.07;;
8327;SDS011;4201;48.754;8.864;2024-03-17T14:00:22;5.90;;;2.00;;
8327;SDS011;4201;48.754;8.864;2024-03-17T14:02:48;6.30;;;1.80;;
8327;SDS011;4201;48.754;8.864;2024-03-17T14:05:17;4.47;;;2.50;;
8327;SDS011;4201;48.754;8.864;2024-03-17T14:07:43;3.50;;;2.47;;
8327;SDS011;4201;48.754;8.864;2024-03-17T14:10:12;8.23;;;2.57;;
8327;SDS011;4201;48.754;8.864;2024-03-17T14:12:38;4.27;;;2.70;;
8327;SDS011;4201;48.754;8.864;2024-03-17T14:15:05;4.00;;;2.20;;
8327;SDS011;4201;48.754;8.864;2024-03-17T14:17:32;3.37;;;1.97;;
8327;SDS011;4201;48.754;8.864;2024-03-17T14:19:58;4.37;;;2.40;;
8327;SDS011;4201;48.754;8.864;2024-03-17T14:22:26;3.87;;;2.00;;
8327;SDS011;4201;48.754;8.864;2024-03-17T14:24:52;4.67;;;2.60;;
8327;SDS011;4201;48.754;8.864;2024-03-17T14:27:18;4.97;;;2.60;;
8327;SDS011;4201;48.754;8.864;2024-03-17T14:29:45;4.53;;;2.70;;
8327;SDS011;4201;48.754;8.864;2024-03-17T14:32:12;4.30;;;1.97;;
8327;SDS011;4201;48.754;8.864;2024-03-17T14:34:39;3.23;;;1.70;;
8327;SDS011;4201;48.754;8.864;2024-03-17T14:37:05;6.07;;;1.93;;
8327;SDS011;4201;48.754;8.864;2024-03-17T14:39:33;3.73;;;2.10;;
8327;SDS011;4201;48.754;8.864;2024-03-17T14:41:59;6.33;;;2.33;;
8327;SDS011;4201;48.754;8.864;2024-03-17T14:44:25;6.73;;;2.63;;
8327;SDS011;4201;48.754;8.864;2024-03-17T14:46:52;5.73;;;2.37;;
8327;SDS011;4201;48.754;8.864;2024-03-17T14:49:19;4.50;;;2.00;;
8327;SDS011;4201;48.754;8.864;2024-03-17T14:51:45;3.73;;;2.00;;
8327;SDS011;4201;48.754;8.864;2024-03-17T14:54:12;3.47;;;2.17;;
8327;SDS011;4201;48.754;8.864;2024-03-17T14:56:40;3.33;;;2.07;;
8327;SDS011;4201;48.754;8.864;2024-03-17T14:59:06;3.20;;;1.97;;
8327;SDS011;4201;48.754;8.864;2024-03-17T15:01:33;6.17;;;2.33;;
8327;SDS011;4201;48.754;8.864;2024-03-17T15:04:00;4.20;;;2.50;;
8327;SDS011;4201;48.754;8.864;2024-03-17T15:06:26;5.07;;;2.57;;
8327;SDS011;4201;48.754;8.864;2024-03-17T15:08:52;6.83;;;3.50;;
8327;SDS011;4201;48.754;8.864;2024-03-17T15:11:18;6.53;;;2.50;;
8327;SDS011;4201;48.754;8.864;2024-03-17T15:13:46;3.30;;;2.17;;
8327;SDS011;4201;48.754;8.864;2024-03-17T15:16:12;6.07;;;3.03;;
8327;SDS011;4201;48.754;8.864;2024-03-17T15:18:40;5.30;;;2.60;;
8327;SDS011;4201;48.754;8.864;2024-03-17T15:21:07;4.00;;;2.23;;
8327;SDS011;4201;48.754;8.864;2024-03-17T15:23:34;4.37;;;2.50;;
8327;SDS011;4201;48.754;8.864;2024-03-17T15:26:00;4.23;;;2.37;;
8327;SDS011;4201;48.754;8.864;2024-03-17T15:28:31;5.50;;;2.70;;
8327;SDS011;4201;48.754;8.864;2024-03-17T15:30:57;6.30;;;2.17;;
8327;SDS011;4201;48.754;8.864;2024-03-17T15:33:25;4.40;;;2.60;;
8327;SDS011;4201;48.754;8.864;2024-03-17T15:35:51;6.43;;;2.47;;
8327;SDS011;4201;48.754;8.864;2024-03-17T15:38:17;7.47;;;3.40;;
8327;SDS011;4201;48.754;8.864;2024-03-17T15:40:44;7.47;;;3.67;;
8327;SDS011;4201;48.754;8.864;2024-03-17T15:43:11;8.00;;;4.10;;
8327;SDS011;4201;48.754;8.864;2024-03-17T15:45:37;9.07;;;4.20;;
8327;SDS011;4201;48.754;8.864;2024-03-17T15:48:05;7.33;;;4.20;;
8327;SDS011;4201;48.754;8.864;2024-03-17T15:50:32;7.03;;;3.60;;
8327;SDS011;4201;48.754;8.864;2024-03-17T15:53:00;8.37;;;4.50;;
8327;SDS011;4201;48.754;8.864;2024-03-17T15:55:26;7.67;;;4.87;;
8327;SDS011;4201;48.754;8.864;2024-03-17T15:57:53;7.37;;;5.03;;
8327;SDS011;4201;48.754;8.864;2024-03-17T16:00:19;6.93;;;5.47;;
8327;SDS011;4201;48.754;8.864;2024-03-17T16:02:45;8.73;;;5.63;;
8327;SDS011;4201;48.754;8.864;2024-03-17T16:05:14;7.67;;;4.43;;
8327;SDS011;4201;48.754;8.864;2024-03-17T16:07:41;6.80;;;4.80;;
8327;SDS011;4201;48.754;8.864;2024-03-17T16:10:08;6.50;;;4.33;;
8327;SDS011;4201;48.754;8.864;2024-03-17T16:12:36;7.97;;;3.90;;
8327;SDS011;4201;48.754;8.864;2024-03-17T16:15:03;5.20;;;3.90;;
8327;SDS011;4201;48.754;8.864;2024-03-17T16:17:29;6.53;;;4.23;;
8327;SDS011;4201;48.754;8.864;2024-03-17T16:19:55;7.30;;;4.83;;
8327;SDS011;4201;48.754;8.864;2024-03-17T16:22:24;10.00;;;4.87;;
8327;SDS011;4201;48.754;8.864;2024-03-17T16:24:52;7.47;;;4.13;;
8327;SDS011;4201;48.754;8.864;2024-03-17T16:27:18;6.60;;;3.83;;
8327;SDS011;4201;48.754;8.864;2024-03-17T16:29:44;7.43;;;5.37;;
8327;SDS011;4201;48.754;8.864;2024-03-17T16:32:11;6.90;;;4.40;;
8327;SDS011;4201;48.754;8.864;2024-03-17T16:34:37;9.57;;;4.83;;
8327;SDS011;4201;48.754;8.864;2024-03-17T16:37:03;5.67;;;3.30;;
8327;SDS011;4201;48.754;8.864;2024-03-17T16:39:31;5.93;;;4.13;;
8327;SDS011;4201;48.754;8.864;2024-03-17T16:41:58;7.40;;;4.70;;
8327;SDS011;4201;48.754;8.864;2024-03-17T16:44:26;6.40;;;4.50;;
8327;SDS011;4201;48.754;8.864;2024-03-17T16:47:07;5.10;;;3.90;;